createdAt,value
2018-05-15T00:01:39.483Z,66.30
2018-05-15T00:04:06.941Z,66.90
2018-05-15T00:06:35.189Z,67.80
2018-05-15T00:09:02.659Z,67.70
2018-05-15T00:11:30.120Z,68.00
2018-05-15T00:13:58.349Z,68.90
2018-05-15T00:16:25.827Z,68.80
2018-05-15T00:18:53.273Z,69.20
2018-05-15T00:21:20.753Z,69.60
2018-05-15T00:23:48.213Z,69.70
2018-05-15T00:26:15.671Z,69.90
2018-05-15T00:28:43.222Z,70.20
2018-05-15T00:31:10.681Z,70.30
2018-05-15T00:33:38.149Z,70.40
2018-05-15T00:36:06.366Z,70.60
2018-05-15T00:38:33.860Z,70.60
2018-05-15T00:41:01.316Z,70.90
2018-05-15T00:43:30.294Z,70.90
2018-05-15T00:45:57.767Z,70.80
2018-05-15T00:48:25.250Z,70.70
2018-05-15T00:50:53.466Z,70.70
2018-05-15T00:53:20.929Z,70.70
2018-05-15T00:55:48.409Z,70.70
2018-05-15T00:58:15.871Z,70.90
2018-05-15T01:00:43.412Z,70.90
2018-05-15T01:03:10.971Z,71.00
2018-05-15T01:05:38.428Z,71.00
2018-05-15T01:08:05.894Z,71.30
2018-05-15T01:10:33.365Z,71.60
2018-05-15T01:13:01.632Z,71.90
2018-05-15T01:15:29.105Z,71.90
2018-05-15T01:17:57.441Z,72.20
2018-05-15T01:20:24.919Z,71.60
2018-05-15T01:22:52.381Z,71.00
2018-05-15T01:25:20.650Z,70.90
2018-05-15T01:27:48.109Z,70.90
2018-05-15T01:30:15.580Z,70.80
2018-05-15T01:32:43.803Z,70.10
2018-05-15T01:35:11.269Z,70.10
2018-05-15T01:37:38.741Z,69.80
2018-05-15T01:40:06.217Z,69.50
2018-05-15T01:42:34.446Z,69.50
2018-05-15T01:45:01.943Z,69.50
2018-05-15T01:47:30.178Z,71.20
2018-05-15T01:49:57.661Z,71.00
2018-05-15T01:52:25.125Z,70.90
2018-05-15T01:54:53.364Z,71.10
2018-05-15T01:57:20.843Z,71.00
2018-05-15T01:59:48.392Z,71.20
2018-05-15T02:02:15.867Z,71.60
2018-05-15T02:04:44.135Z,71.80
2018-05-15T02:07:11.618Z,71.80
2018-05-15T02:09:39.081Z,71.80
2018-05-15T02:12:08.169Z,72.30
2018-05-15T02:14:35.693Z,72.20
2018-05-15T02:17:04.133Z,72.50
2018-05-15T02:19:31.600Z,72.50
2018-05-15T02:21:59.097Z,72.10
2018-05-15T02:24:27.334Z,72.90
2018-05-15T02:26:54.810Z,72.90
2018-05-15T02:29:22.291Z,72.90
2018-05-15T02:31:50.559Z,72.50
2018-05-15T02:34:18.803Z,72.20
2018-05-15T02:36:46.262Z,72.20
2018-05-15T02:39:13.736Z,72.10
2018-05-15T02:41:41.200Z,71.70
2018-05-15T02:44:08.666Z,71.40
2018-05-15T02:46:36.890Z,71.50
2018-05-15T02:49:04.359Z,71.40
2018-05-15T02:51:31.825Z,70.70
2018-05-15T02:53:59.311Z,70.30
2018-05-15T02:56:27.545Z,69.60
2018-05-15T02:58:55.057Z,69.60
2018-05-15T03:01:22.520Z,68.50
2018-05-15T03:03:49.987Z,68.40
2018-05-15T03:06:17.456Z,68.50
2018-05-15T03:08:44.930Z,68.20
2018-05-15T03:11:12.413Z,67.60
2018-05-15T03:13:40.646Z,67.20
2018-05-15T03:16:08.112Z,67.20
2018-05-15T03:18:35.617Z,67.00
2018-05-15T03:21:03.098Z,67.00
2018-05-15T03:23:30.566Z,66.90
2018-05-15T03:25:58.046Z,66.80
2018-05-15T03:28:25.558Z,67.00
2018-05-15T03:30:53.033Z,66.80
2018-05-15T03:33:21.208Z,66.50
2018-05-15T03:35:49.411Z,66.60
2018-05-15T03:38:16.892Z,66.50
2018-05-15T03:40:45.237Z,66.20
2018-05-15T03:43:12.710Z,66.20
2018-05-15T03:45:40.973Z,66.00
2018-05-15T03:48:09.247Z,65.80
2018-05-15T03:50:36.704Z,65.70
2018-05-15T03:53:04.989Z,65.70
2018-05-15T03:55:33.214Z,65.80
2018-05-15T03:58:00.692Z,65.60
2018-05-15T04:03:39.768Z,65.00
2018-05-15T04:06:19.846Z,65.10
2018-05-15T04:08:47.346Z,64.90
2018-05-15T04:11:14.789Z,64.60
2018-05-15T04:13:42.253Z,63.90
2018-05-15T04:16:09.720Z,63.70
2018-05-15T04:18:37.208Z,61.70
2018-05-15T04:21:05.181Z,60.00
2018-05-15T04:23:32.658Z,58.70
2018-05-15T04:26:00.134Z,56.60
2018-05-15T04:28:27.658Z,55.10
2018-05-15T04:30:55.867Z,51.20
2018-05-15T04:33:23.329Z,51.10
2018-05-15T04:35:50.816Z,49.80
2018-05-15T04:38:19.037Z,46.90
2018-05-15T04:40:46.522Z,46.90
2018-05-15T04:43:13.985Z,45.60
2018-05-15T04:45:41.473Z,44.40
2018-05-15T04:48:09.712Z,42.50
2018-05-15T04:50:37.173Z,42.50
2018-05-15T04:53:04.637Z,41.90
2018-05-15T04:55:32.105Z,41.30
2018-05-15T04:58:00.320Z,39.70
2018-05-15T05:00:27.784Z,39.70
2018-05-15T05:02:55.260Z,39.50
2018-05-15T05:05:22.731Z,38.50
2018-05-15T05:07:50.187Z,38.00
2018-05-15T05:10:17.658Z,37.40
2018-05-15T05:12:45.881Z,35.90
2018-05-15T05:15:13.351Z,35.80
2018-05-15T05:17:40.816Z,34.70
2018-05-15T05:20:08.277Z,34.10
2018-05-15T05:22:35.772Z,33.50
2018-05-15T05:25:03.246Z,33.20
2018-05-15T05:27:30.724Z,32.50
2018-05-15T05:29:58.181Z,31.60
2018-05-15T05:32:25.661Z,31.80
2018-05-15T05:34:53.185Z,32.20
2018-05-15T05:37:20.660Z,32.10
2018-05-15T05:39:48.109Z,32.20
2018-05-15T05:42:15.576Z,32.60
2018-05-15T05:44:43.042Z,32.30
2018-05-15T05:47:10.529Z,31.70
2018-05-15T05:49:38.016Z,31.10
2018-05-15T05:52:05.491Z,30.60
2018-05-15T05:54:32.958Z,30.00
2018-05-15T05:57:06.733Z,30.10
2018-05-15T05:59:34.192Z,31.00
2018-05-15T06:02:01.662Z,30.50
2018-05-15T06:04:30.120Z,30.10
2018-05-15T06:06:57.623Z,30.20
2018-05-15T06:09:25.071Z,30.00
2018-05-15T06:11:52.559Z,29.90
2018-05-15T06:14:20.087Z,30.00
2018-05-15T06:16:47.492Z,30.10
2018-05-15T06:19:14.982Z,29.50
2018-05-15T06:21:42.424Z,29.90
2018-05-15T06:24:09.900Z,30.40
2018-05-15T06:26:37.394Z,30.60
2018-05-15T06:29:05.658Z,29.60
2018-05-15T06:31:33.889Z,29.70
2018-05-15T06:34:01.370Z,29.60
2018-05-15T06:36:29.309Z,29.00
2018-05-15T06:38:56.763Z,29.40
2018-05-15T06:41:24.229Z,29.10
2018-05-15T06:43:51.681Z,28.90
2018-05-15T06:46:19.165Z,28.90
2018-05-15T06:48:47.400Z,28.50
2018-05-15T06:51:14.901Z,28.00
2018-05-15T06:53:43.133Z,27.70
2018-05-15T06:56:10.599Z,27.70
2018-05-15T06:58:38.078Z,27.00
2018-05-15T07:01:06.345Z,26.30
2018-05-15T07:03:33.903Z,27.00
2018-05-15T07:06:01.370Z,27.50
2018-05-15T07:08:29.626Z,27.90
2018-05-15T07:10:57.094Z,27.60
2018-05-15T07:13:24.596Z,27.30
2018-05-15T07:15:52.058Z,26.70
2018-05-15T07:18:19.514Z,26.60
2018-05-15T07:20:46.997Z,25.80
2018-05-15T07:23:14.441Z,25.70
2018-05-15T07:25:41.919Z,25.50
2018-05-15T07:28:09.493Z,25.30
2018-05-15T07:30:36.975Z,25.30
2018-05-15T07:33:04.471Z,25.20
2018-05-15T07:35:31.902Z,25.60
2018-05-15T07:37:59.371Z,25.80
2018-05-15T07:40:26.893Z,25.50
2018-05-15T07:42:55.141Z,25.00
2018-05-15T07:45:22.617Z,25.00
2018-05-15T07:47:50.836Z,24.50
2018-05-15T07:50:18.313Z,24.50
2018-05-15T07:52:45.792Z,24.90
2018-05-15T07:55:14.045Z,24.10
2018-05-15T07:57:41.514Z,24.10
2018-05-15T08:00:08.980Z,24.00
2018-05-15T08:02:37.224Z,24.20
2018-05-15T08:05:04.696Z,24.10
2018-05-15T08:07:32.192Z,24.30
2018-05-15T08:09:59.710Z,24.60
2018-05-15T08:12:27.154Z,23.40
2018-05-15T08:14:54.617Z,23.80
2018-05-15T08:17:22.849Z,24.80
2018-05-15T08:19:50.357Z,24.80
2018-05-15T08:22:18.645Z,25.70
2018-05-15T08:24:46.075Z,25.20
2018-05-15T08:27:13.541Z,26.00
2018-05-15T08:29:41.041Z,26.00
2018-05-15T08:32:08.520Z,25.20
2018-05-15T08:34:35.977Z,25.10
2018-05-15T08:37:03.476Z,25.20
2018-05-15T08:39:31.684Z,26.70
2018-05-15T08:41:59.161Z,26.70
2018-05-15T08:44:26.637Z,26.90
2018-05-15T08:46:54.120Z,27.00
2018-05-15T08:49:22.362Z,27.30
2018-05-15T08:51:49.832Z,27.30
2018-05-15T08:54:17.306Z,27.60
2018-05-15T08:56:45.532Z,28.10
2018-05-15T08:59:13.110Z,28.10
2018-05-15T09:01:40.571Z,28.90
2018-05-15T09:04:08.080Z,28.60
2018-05-15T09:06:35.608Z,28.50
2018-05-15T09:09:03.053Z,28.80
2018-05-15T09:11:31.287Z,27.80
2018-05-15T09:13:58.763Z,27.80
2018-05-15T09:16:26.220Z,27.80
2018-05-15T09:18:53.695Z,27.50
2018-05-15T09:21:21.153Z,27.70
2018-05-15T09:23:49.401Z,28.00
2018-05-15T09:26:16.859Z,28.00
2018-05-15T09:28:44.341Z,27.60
2018-05-15T09:31:12.581Z,27.90
2018-05-15T09:33:40.045Z,27.40
2018-05-15T09:36:07.523Z,26.50
2018-05-15T09:38:35.747Z,24.30
2018-05-15T09:41:03.234Z,24.20
2018-05-15T09:43:54.554Z,24.40
2018-05-15T09:46:22.032Z,23.80
2018-05-15T09:48:50.264Z,23.90
2018-05-15T09:51:17.845Z,23.80
2018-05-15T09:53:45.314Z,23.90
2018-05-15T09:56:13.574Z,24.30
2018-05-15T09:58:41.038Z,24.30
2018-05-15T10:01:08.518Z,24.90
2018-05-15T10:03:36.746Z,26.40
2018-05-15T10:06:04.215Z,26.30
2018-05-15T10:08:31.677Z,26.30
2018-05-15T10:10:59.157Z,26.90
2018-05-15T10:13:26.626Z,27.40
2018-05-15T10:15:54.107Z,27.10
2018-05-15T10:18:21.574Z,26.70
2018-05-15T10:20:49.076Z,25.90
2018-05-15T10:23:17.314Z,26.00
2018-05-15T10:25:44.790Z,25.90
2018-05-15T10:28:12.245Z,26.30
2018-05-15T10:30:40.521Z,26.40
2018-05-15T10:33:08.764Z,26.40
2018-05-15T10:35:36.219Z,26.30
2018-05-15T10:38:03.708Z,25.90
2018-05-15T10:40:31.935Z,27.00
2018-05-15T10:42:59.392Z,26.60
2018-05-15T10:45:27.976Z,27.40
2018-05-15T10:47:55.449Z,27.80
2018-05-15T10:50:22.910Z,27.50
2018-05-15T10:52:50.396Z,27.80
2018-05-15T10:55:18.627Z,27.30
2018-05-15T10:57:46.102Z,27.20
2018-05-15T11:00:13.561Z,27.40
2018-05-15T11:02:41.042Z,28.60
2018-05-15T11:05:09.260Z,29.70
2018-05-15T11:07:36.742Z,29.70
2018-05-15T11:10:04.989Z,30.10
2018-05-15T11:12:32.449Z,30.00
2018-05-15T11:14:59.909Z,31.50
2018-05-15T11:17:27.396Z,33.00
2018-05-15T11:20:06.822Z,33.10
2018-05-15T11:25:33.974Z,31.40
2018-05-15T11:28:01.434Z,31.90
2018-05-15T11:30:29.041Z,31.90
2018-05-15T11:32:56.449Z,32.20
2018-05-15T11:35:23.909Z,32.40
2018-05-15T11:37:51.369Z,32.40
2018-05-15T11:40:19.804Z,32.70
2018-05-15T11:42:47.277Z,31.80
2018-05-15T11:45:14.765Z,31.50
2018-05-15T11:47:42.288Z,32.80
2018-05-15T11:50:11.053Z,34.10
2018-05-15T11:52:38.680Z,33.40
2018-05-15T11:55:05.423Z,33.80
2018-05-15T11:57:33.661Z,33.40
2018-05-15T12:00:01.353Z,33.30
2018-05-15T12:02:28.719Z,33.70
2018-05-15T12:04:56.049Z,33.80
2018-05-15T12:07:23.522Z,33.30
2018-05-15T12:09:51.760Z,33.70
2018-05-15T12:12:19.251Z,33.70
2018-05-15T12:14:46.704Z,33.80
2018-05-15T12:17:14.952Z,32.70
2018-05-15T12:19:42.414Z,32.60
2018-05-15T12:22:09.890Z,32.80
2018-05-15T12:24:38.187Z,31.90
2018-05-15T12:27:05.609Z,31.80
2018-05-15T12:29:33.081Z,31.70
2018-05-15T12:32:01.316Z,30.90
2018-05-15T12:34:28.799Z,30.80
2018-05-15T12:36:56.277Z,30.20
2018-05-15T12:39:23.736Z,30.90
2018-05-15T12:41:51.247Z,30.00
2018-05-15T12:44:18.727Z,29.60
2018-05-15T12:46:46.241Z,29.90
2018-05-15T12:49:13.788Z,30.80
2018-05-15T12:51:41.239Z,31.20
2018-05-15T12:54:08.793Z,31.70
2018-05-15T12:56:36.220Z,32.00
2018-05-15T12:59:04.465Z,32.20
2018-05-15T13:01:31.931Z,32.10
2018-05-15T13:03:59.398Z,32.60
2018-05-15T13:06:27.645Z,33.90
2018-05-15T13:08:55.295Z,33.90
2018-05-15T13:11:22.740Z,33.20
2018-05-15T13:13:50.220Z,32.90
2018-05-15T13:16:18.597Z,33.20
2018-05-15T13:18:46.082Z,32.90
2018-05-15T13:21:14.306Z,32.80
2018-05-15T13:23:42.245Z,32.80
2018-05-15T13:26:09.763Z,32.60
2018-05-15T13:28:38.027Z,31.50
2018-05-15T13:31:06.276Z,32.40
2018-05-15T13:33:33.730Z,32.50
2018-05-15T13:36:01.213Z,31.50
2018-05-15T13:38:28.678Z,30.10
2018-05-15T13:40:56.286Z,30.00
2018-05-15T13:43:23.734Z,30.60
2018-05-15T13:45:51.197Z,31.00
2018-05-15T13:48:18.662Z,30.80
2018-05-15T13:50:46.145Z,30.50
2018-05-15T13:53:13.601Z,30.80
2018-05-15T13:55:41.066Z,30.70
2018-05-15T13:58:08.537Z,30.60
2018-05-15T14:00:36.786Z,31.90
2018-05-15T14:03:04.274Z,31.90
2018-05-15T14:05:32.506Z,32.20
2018-05-15T14:07:59.978Z,32.20
2018-05-15T14:10:27.433Z,31.10
2018-05-15T14:12:54.909Z,30.00
2018-05-15T14:15:23.138Z,30.90
2018-05-15T14:17:50.643Z,30.90
2018-05-15T14:20:18.250Z,31.40
2018-05-15T14:22:45.725Z,32.00
2018-05-15T14:25:13.194Z,31.30
2018-05-15T14:27:40.666Z,31.50
2018-05-15T14:30:08.921Z,31.50
2018-05-15T14:32:36.405Z,31.50
2018-05-15T14:35:04.638Z,31.20
2018-05-15T14:37:32.110Z,31.10
2018-05-15T14:39:59.584Z,30.60
2018-05-15T14:42:40.365Z,30.90
2018-05-15T14:45:15.944Z,30.30
2018-05-15T14:47:43.466Z,30.30
2018-05-15T14:50:11.686Z,30.10
2018-05-15T14:52:39.144Z,30.10
2018-05-15T14:55:06.615Z,29.70
2018-05-15T14:57:34.101Z,29.40
2018-05-15T15:00:02.333Z,29.10
2018-05-15T15:02:29.803Z,29.00
2018-05-15T15:04:57.261Z,29.70
2018-05-15T15:07:24.838Z,30.20
2018-05-15T15:09:53.079Z,31.60
2018-05-15T15:12:20.562Z,30.90
2018-05-15T15:14:48.043Z,30.90
2018-05-15T15:17:15.566Z,29.90
2018-05-15T15:19:43.057Z,29.60
2018-05-15T15:22:10.518Z,29.80
2018-05-15T15:24:37.989Z,30.00
2018-05-15T15:27:05.442Z,30.00
2018-05-15T15:29:33.005Z,30.00
2018-05-15T15:32:00.466Z,29.30
2018-05-15T15:34:27.927Z,29.20
2018-05-15T15:36:55.392Z,29.40
2018-05-15T15:39:22.866Z,29.50
2018-05-15T15:41:51.098Z,30.00
2018-05-15T15:44:18.585Z,30.00
2018-05-15T15:46:46.077Z,31.10
2018-05-15T15:49:14.320Z,32.20
2018-05-15T15:51:41.817Z,32.20
2018-05-15T15:54:09.296Z,32.30
2018-05-15T15:56:36.767Z,32.30
2018-05-15T15:59:04.232Z,31.90
2018-05-15T16:01:31.724Z,30.90
2018-05-15T16:03:59.326Z,30.20
2018-05-15T16:06:26.762Z,30.40
2018-05-15T16:08:54.246Z,30.80
2018-05-15T16:11:21.693Z,31.20
2018-05-15T16:13:49.173Z,31.30
2018-05-15T16:16:16.646Z,31.90
2018-05-15T16:18:44.888Z,31.60
2018-05-15T16:21:12.353Z,31.60
2018-05-15T16:23:39.872Z,32.00
2018-05-15T16:26:08.102Z,31.70
2018-05-15T16:28:35.585Z,31.70
2018-05-15T16:31:03.810Z,31.60
2018-05-15T16:33:31.285Z,31.60
2018-05-15T16:35:58.767Z,31.70
2018-05-15T16:38:27.002Z,32.50
2018-05-15T16:40:54.488Z,31.90
2018-05-15T16:43:21.973Z,32.50
2018-05-15T16:45:50.196Z,32.50
2018-05-15T16:48:17.664Z,32.40
2018-05-15T16:50:46.663Z,32.00
2018-05-15T16:53:14.665Z,31.90
2018-05-15T16:55:42.962Z,31.80
2018-05-15T16:58:10.537Z,31.80
2018-05-15T17:00:38.900Z,32.30
2018-05-15T17:03:06.374Z,32.40
2018-05-15T17:05:33.850Z,32.60
2018-05-15T17:08:02.894Z,32.60
2018-05-15T17:10:30.311Z,32.00
2018-05-15T17:12:57.767Z,32.50
2018-05-15T17:15:26.011Z,31.20
2018-05-15T17:17:53.482Z,31.20
2018-05-15T17:20:20.991Z,31.20
2018-05-15T17:22:48.462Z,31.70
2018-05-15T17:25:15.916Z,31.90
2018-05-15T17:27:43.423Z,32.20
2018-05-15T17:30:10.885Z,31.90
2018-05-15T17:32:39.141Z,31.90
2018-05-15T17:35:06.596Z,31.90
2018-05-15T17:37:34.063Z,31.90
2018-05-15T17:40:01.517Z,32.50
2018-05-15T17:42:29.765Z,31.70
2018-05-15T17:44:57.257Z,31.70
2018-05-15T17:47:25.633Z,32.90
2018-05-15T17:49:53.873Z,33.20
2018-05-15T17:52:21.357Z,33.10
2018-05-15T17:54:49.610Z,33.70
2018-05-15T17:57:17.081Z,33.70
2018-05-15T17:59:46.173Z,33.80
2018-05-15T18:02:14.468Z,33.80
2018-05-15T18:04:42.721Z,34.90
2018-05-15T18:07:10.181Z,34.30
2018-05-15T18:09:38.492Z,34.80
2018-05-15T18:12:05.968Z,34.80
2018-05-15T18:14:33.498Z,34.50
2018-05-15T18:17:00.988Z,34.70
2018-05-15T18:19:28.451Z,34.80
2018-05-15T18:21:55.935Z,34.90
2018-05-15T18:24:23.409Z,35.00
2018-05-15T18:26:51.660Z,35.30
2018-05-15T18:29:19.152Z,35.20
2018-05-15T18:31:46.673Z,35.50
2018-05-15T18:34:14.243Z,35.70
2018-05-15T18:36:42.129Z,36.10
2018-05-15T18:39:09.610Z,36.40
2018-05-15T18:41:37.058Z,36.70
2018-05-15T18:44:04.522Z,36.90
2018-05-15T18:46:32.018Z,37.00
2018-05-15T18:48:59.489Z,36.80
2018-05-15T18:51:26.983Z,37.20
2018-05-15T18:53:54.446Z,37.00
2018-05-15T18:58:55.957Z,37.10
2018-05-15T19:01:23.445Z,37.30
2018-05-15T19:03:50.918Z,37.20
2018-05-15T19:06:18.421Z,37.20
2018-05-15T19:08:45.882Z,37.50
2018-05-15T19:11:19.866Z,37.90
2018-05-15T19:13:47.350Z,37.90
2018-05-15T19:16:14.833Z,38.10
2018-05-15T19:18:42.305Z,38.50
2018-05-15T19:21:09.793Z,38.80
2018-05-15T19:23:37.273Z,39.10
2018-05-15T19:26:04.747Z,39.30
2018-05-15T19:28:32.984Z,40.50
2018-05-15T19:31:01.368Z,39.90
2018-05-15T19:33:34.847Z,40.30
2018-05-15T19:36:07.930Z,40.40
2018-05-15T19:38:35.404Z,40.60
2018-05-15T19:41:02.869Z,40.90
2018-05-15T19:43:30.345Z,41.30
2018-05-15T19:45:58.616Z,41.70
2018-05-15T19:50:59.978Z,42.10
2018-05-15T19:53:27.437Z,42.60
2018-05-15T19:55:55.684Z,43.50
2018-05-15T19:58:23.925Z,43.70
2018-05-15T20:00:51.407Z,43.70
2018-05-15T20:03:18.861Z,44.20
2018-05-15T20:05:46.334Z,44.60
2018-05-15T20:08:14.559Z,45.30
2018-05-15T20:10:42.043Z,45.30
2018-05-15T20:13:09.495Z,45.80
2018-05-15T20:15:38.188Z,46.20
2018-05-15T20:18:05.654Z,46.80
2018-05-15T20:20:33.244Z,47.10
2018-05-15T20:23:01.489Z,48.30
2018-05-15T20:25:29.771Z,48.90
2018-05-15T20:27:57.231Z,48.90
2018-05-15T20:30:25.466Z,50.10
2018-05-15T20:32:52.969Z,50.10
2018-05-15T20:35:20.436Z,50.20
2018-05-15T20:37:48.672Z,51.30
2018-05-15T20:40:16.130Z,51.30
2018-05-15T20:42:43.587Z,52.00
2018-05-15T20:45:11.102Z,52.80
2018-05-15T20:47:38.581Z,53.00
2018-05-15T20:50:06.064Z,53.80
2018-05-15T20:52:33.546Z,55.00
2018-05-15T20:55:01.863Z,56.30
2018-05-15T20:57:29.352Z,56.20
2018-05-15T20:59:56.946Z,56.90
2018-05-15T21:02:24.409Z,57.30
2018-05-15T21:04:51.889Z,57.90
2018-05-15T21:07:19.369Z,58.20
2018-05-15T21:09:46.842Z,58.40
2018-05-15T21:12:15.069Z,59.10
2018-05-15T21:14:42.537Z,59.00
2018-05-15T21:17:10.008Z,59.00
2018-05-15T21:19:37.580Z,59.10
2018-05-15T21:22:05.046Z,59.70
2018-05-15T21:24:33.307Z,60.00
2018-05-15T21:27:00.774Z,60.00
2018-05-15T21:29:28.250Z,60.70
2018-05-15T21:31:55.733Z,60.90
2018-05-15T21:34:23.250Z,60.90
2018-05-15T21:36:51.537Z,61.40
2018-05-15T21:39:18.974Z,61.40
2018-05-15T21:41:46.486Z,61.50
2018-05-15T21:44:13.973Z,61.30
2018-05-15T21:46:41.506Z,61.90
2018-05-15T21:49:09.048Z,61.10
2018-05-15T21:51:36.586Z,60.90
2018-05-15T21:54:04.154Z,60.80
2018-05-15T21:56:31.638Z,60.80
2018-05-15T21:58:59.126Z,61.30
2018-05-15T22:01:26.596Z,61.50
2018-05-15T22:03:54.915Z,61.20
2018-05-15T22:06:22.310Z,61.20
2018-05-15T22:08:50.549Z,61.10
2018-05-15T22:11:17.574Z,61.10
2018-05-15T22:13:56.881Z,60.80
2018-05-15T22:16:37.162Z,60.70
2018-05-15T22:19:16.585Z,60.60
2018-05-15T22:21:55.947Z,60.70
2018-05-15T22:24:29.252Z,60.80
2018-05-15T22:26:56.725Z,61.20
2018-05-15T22:29:24.214Z,61.40
2018-05-15T22:31:52.425Z,61.90
2018-05-15T22:34:19.898Z,61.90
2018-05-15T22:36:47.388Z,62.20
2018-05-15T22:39:14.849Z,62.20
2018-05-15T22:41:43.122Z,62.70
2018-05-15T22:44:10.597Z,62.60
2018-05-15T22:46:38.060Z,62.70
2018-05-15T22:49:05.552Z,63.10
2018-05-15T22:51:33.013Z,63.40
2018-05-15T22:56:34.450Z,64.30
2018-05-15T22:59:01.942Z,64.20
2018-05-15T23:01:29.398Z,64.90
2018-05-15T23:03:56.860Z,65.10
2018-05-15T23:06:24.340Z,65.40
2018-05-15T23:08:51.829Z,65.70
2018-05-15T23:11:19.292Z,65.80
2018-05-15T23:13:46.838Z,66.40
2018-05-15T23:16:14.307Z,66.80
2018-05-15T23:18:43.574Z,67.30
2018-05-15T23:21:11.061Z,67.70
2018-05-15T23:23:38.518Z,67.00
2018-05-15T23:26:06.001Z,67.20
2018-05-15T23:28:33.989Z,67.40
2018-05-15T23:31:02.225Z,66.20
2018-05-15T23:33:29.707Z,66.20
2018-05-15T23:35:57.181Z,67.20
2018-05-15T23:38:25.421Z,67.90
2018-05-15T23:40:52.903Z,67.90
2018-05-15T23:43:21.134Z,67.60
2018-05-15T23:45:48.606Z,67.50
2018-05-15T23:48:16.079Z,67.30
2018-05-15T23:50:43.563Z,67.70
2018-05-15T23:53:11.041Z,67.40
2018-05-15T23:55:38.568Z,67.50
2018-05-15T23:58:06.798Z,67.50
